createdAt,value
2019-05-22T00:02:21.187Z,100418.88
2019-05-22T00:07:23.595Z,100415.88
2019-05-22T00:12:27.935Z,100418.09
2019-05-22T00:17:31.824Z,100432.41
2019-05-22T00:22:37.062Z,100434.83
2019-05-22T00:27:40.004Z,100448.69
2019-05-22T00:32:42.995Z,100447.35
2019-05-22T00:37:46.962Z,100443.96
2019-05-22T00:43:03.330Z,100449.27
2019-05-22T00:47:57.221Z,100449.95
2019-05-22T00:53:01.695Z,100463.74
2019-05-22T00:58:11.177Z,100469.08
2019-05-22T01:03:17.163Z,100475.42
2019-05-22T01:08:21.261Z,100482.00
2019-05-22T01:13:26.531Z,100482.38
2019-05-22T01:18:31.840Z,100483.94
2019-05-22T01:23:36.390Z,100488.52
2019-05-22T01:28:39.087Z,100485.78
2019-05-22T01:33:58.871Z,100483.94
2019-05-22T01:39:29.047Z,100488.89
2019-05-22T01:44:33.825Z,100502.53
2019-05-22T01:49:47.224Z,100495.22
2019-05-22T01:54:52.008Z,100505.22
2019-05-22T01:59:56.549Z,100501.32
2019-05-22T02:05:01.455Z,100507.63
2019-05-22T02:10:07.103Z,100506.62
2019-05-22T02:15:11.606Z,100507.63
2019-05-22T02:20:15.650Z,100510.21
2019-05-22T02:25:20.375Z,100516.58
2019-05-22T02:30:24.269Z,100514.47
2019-05-22T02:35:26.922Z,100514.30
2019-05-22T02:40:34.474Z,100520.61
2019-05-22T02:45:37.089Z,100518.33
2019-05-22T02:50:39.834Z,100521.87
2019-05-22T02:55:42.757Z,100520.77
2019-05-22T03:00:57.501Z,100527.22
2019-05-22T03:06:03.634Z,100533.63
2019-05-22T03:11:05.929Z,100543.64
2019-05-22T03:16:09.151Z,100549.45
2019-05-22T03:21:12.022Z,100549.74
2019-05-22T03:26:18.773Z,100548.89
2019-05-22T03:31:22.709Z,100557.61
2019-05-22T03:36:27.089Z,100554.72
2019-05-22T03:41:29.518Z,100557.92
2019-05-22T03:46:43.621Z,100560.11
2019-05-22T03:51:51.864Z,100568.83
2019-05-22T03:56:54.922Z,100578.67
2019-05-22T04:02:00.099Z,100578.92
2019-05-22T04:07:05.357Z,100580.64
2019-05-22T04:12:10.117Z,100581.41
2019-05-22T04:17:14.368Z,100586.31
2019-05-22T04:22:17.527Z,100591.30
2019-05-22T04:27:21.948Z,100594.47
2019-05-22T04:32:36.625Z,100605.59
2019-05-22T04:37:41.400Z,100603.78
2019-05-22T04:42:44.188Z,100606.51
2019-05-22T04:47:56.643Z,100608.75
2019-05-22T04:53:00.656Z,100612.96
2019-05-22T04:58:08.007Z,100608.55
2019-05-22T05:03:10.735Z,100618.84
2019-05-22T05:08:14.836Z,100618.12
2019-05-22T05:13:19.056Z,100624.27
2019-05-22T05:18:22.196Z,100632.12
2019-05-22T05:23:25.738Z,100642.97
2019-05-22T05:28:28.984Z,100645.03
2019-05-22T05:33:42.911Z,100645.12
2019-05-22T05:38:46.393Z,100645.64
2019-05-22T05:43:49.496Z,100641.84
2019-05-22T05:48:51.682Z,100646.10
2019-05-22T05:54:03.193Z,100642.89
2019-05-22T05:59:07.619Z,100649.32
2019-05-22T06:04:11.880Z,100648.70
2019-05-22T06:09:19.628Z,100642.75
2019-05-22T06:14:24.999Z,100655.44
2019-05-22T06:19:31.132Z,100661.09
2019-05-22T06:24:59.608Z,100665.77
2019-05-22T06:30:13.118Z,100673.92
2019-05-22T06:35:16.691Z,100687.23
2019-05-22T06:40:20.666Z,100688.00
2019-05-22T06:45:23.195Z,100695.88
2019-05-22T06:50:26.461Z,100690.52
2019-05-22T06:55:29.023Z,100697.07
2019-05-22T07:00:31.825Z,100703.16
2019-05-22T07:05:34.368Z,100715.87
2019-05-22T07:10:38.607Z,100717.87
2019-05-22T07:15:45.772Z,100720.29
2019-05-22T07:20:49.864Z,100727.41
2019-05-22T07:25:54.370Z,100722.17
2019-05-22T07:30:57.665Z,100731.02
2019-05-22T07:36:17.288Z,100729.92
2019-05-22T07:41:05.324Z,100741.45
2019-05-22T07:46:08.068Z,100742.76
2019-05-22T07:51:11.868Z,100742.91
2019-05-22T07:56:14.865Z,100736.47
2019-05-22T08:01:18.810Z,100756.15
2019-05-22T08:06:22.301Z,100766.77
2019-05-22T08:11:25.628Z,100771.48
2019-05-22T08:16:29.154Z,100771.95
2019-05-22T08:21:32.483Z,100765.41
2019-05-22T08:26:51.634Z,100778.30
2019-05-22T08:31:40.888Z,100776.16
2019-05-22T08:36:48.082Z,100784.02
2019-05-22T08:41:52.810Z,100777.73
2019-05-22T08:46:56.291Z,100773.11
2019-05-22T08:51:59.790Z,100773.69
2019-05-22T08:57:03.730Z,100771.87
2019-05-22T09:02:08.385Z,100784.36
2019-05-22T09:07:11.005Z,100788.12
2019-05-22T09:12:16.080Z,100794.13
2019-05-22T09:17:20.637Z,100802.25
2019-05-22T09:22:37.830Z,100810.70
2019-05-22T09:27:28.517Z,100816.23
2019-05-22T09:32:31.755Z,100821.85
2019-05-22T09:37:34.259Z,100823.16
2019-05-22T09:42:37.590Z,100823.88
2019-05-22T09:47:40.221Z,100827.94
2019-05-22T09:52:56.809Z,100831.48
2019-05-22T09:57:52.106Z,100828.88
2019-05-22T10:02:54.433Z,100833.53
2019-05-22T10:08:01.625Z,100837.95
2019-05-22T10:13:05.411Z,100843.56
2019-05-22T10:18:08.330Z,100843.09
2019-05-22T10:23:16.111Z,100842.36
2019-05-22T10:28:16.320Z,100847.61
2019-05-22T10:33:19.158Z,100844.52
2019-05-22T10:38:22.672Z,100856.45
2019-05-22T10:43:26.172Z,100877.08
2019-05-22T10:48:28.948Z,100877.44
2019-05-22T10:53:34.208Z,100869.83
2019-05-22T10:58:36.577Z,100870.88
2019-05-22T11:03:39.398Z,100895.16
2019-05-22T11:08:43.437Z,100901.35
2019-05-22T11:14:00.782Z,100901.81
2019-05-22T11:18:51.953Z,100903.49
2019-05-22T11:23:54.378Z,100900.91
2019-05-22T11:28:56.900Z,100901.97
2019-05-22T11:33:59.329Z,100910.98
2019-05-22T11:39:01.948Z,100913.34
2019-05-22T11:44:06.181Z,100909.87
2019-05-22T11:49:09.338Z,100918.78
2019-05-22T11:54:13.069Z,100923.45
2019-05-22T11:59:15.622Z,100924.56
2019-05-22T12:04:19.345Z,100927.34
2019-05-22T12:09:22.395Z,100930.44
2019-05-22T12:14:25.455Z,100932.22
2019-05-22T12:19:30.251Z,100928.29
2019-05-22T12:24:37.410Z,100929.97
2019-05-22T12:29:38.043Z,100932.73
2019-05-22T12:34:41.149Z,100934.88
2019-05-22T12:39:44.351Z,100934.63
2019-05-22T12:44:47.149Z,100942.13
2019-05-22T12:49:50.339Z,100936.05
2019-05-22T12:54:54.089Z,100932.13
2019-05-22T13:00:01.849Z,100937.62
2019-05-22T13:05:02.361Z,100941.91
2019-05-22T13:10:06.109Z,100944.97
2019-05-22T13:15:10.810Z,100946.68
2019-05-22T13:20:19.190Z,100946.68
2019-05-22T13:25:33.187Z,100949.41
2019-05-22T13:30:38.660Z,100953.92
2019-05-22T13:35:42.707Z,100954.15
2019-05-22T13:40:46.492Z,100957.38
2019-05-22T13:45:50.525Z,100965.98
2019-05-22T13:50:55.552Z,100975.40
2019-05-22T13:55:58.399Z,100977.41
2019-05-22T14:01:01.271Z,100988.24
2019-05-22T14:06:04.240Z,100993.72
2019-05-22T14:11:08.031Z,100991.82
2019-05-22T14:16:11.116Z,100997.17
2019-05-22T14:21:13.831Z,100999.93
2019-05-22T14:26:16.337Z,101001.82
2019-05-22T14:31:19.272Z,101012.55
2019-05-22T14:36:22.980Z,101007.80
2019-05-22T14:41:25.321Z,101009.70
2019-05-22T14:46:29.436Z,101014.58
2019-05-22T14:51:32.471Z,101018.73
2019-05-22T14:56:36.160Z,101020.29
2019-05-22T15:01:39.089Z,101019.44
2019-05-22T15:06:42.678Z,101026.00
2019-05-22T15:11:45.055Z,101029.83
2019-05-22T15:16:47.582Z,101027.44
2019-05-22T15:21:50.212Z,101034.83
2019-05-22T15:26:53.052Z,101030.76
2019-05-22T15:31:56.061Z,101032.89
2019-05-22T15:36:58.980Z,101043.14
2019-05-22T15:42:04.843Z,101044.10
2019-05-22T15:47:07.959Z,101043.02
2019-05-22T15:52:14.507Z,101043.00
2019-05-22T15:57:19.376Z,101046.00
2019-05-22T16:02:23.648Z,101042.41
2019-05-22T16:07:28.012Z,101056.48
2019-05-22T16:12:31.448Z,101058.13
2019-05-22T16:17:41.371Z,101055.88
2019-05-22T16:22:42.561Z,101060.41
2019-05-22T16:27:46.979Z,101061.98
2019-05-22T16:32:51.304Z,101062.67
2019-05-22T16:37:57.516Z,101062.42
2019-05-22T16:43:00.053Z,101071.83
2019-05-22T16:48:04.893Z,101071.95
2019-05-22T16:53:10.106Z,101072.62
2019-05-22T16:58:14.317Z,101078.00
2019-05-22T17:03:18.287Z,101079.80
2019-05-22T17:08:21.771Z,101096.57
2019-05-22T17:13:29.965Z,101090.49
2019-05-22T17:18:47.267Z,101094.08
2019-05-22T17:23:37.896Z,101099.68
2019-05-22T17:28:40.586Z,101100.28
2019-05-22T17:33:43.193Z,101104.34
2019-05-22T17:38:46.707Z,101094.81
2019-05-22T17:43:49.195Z,101106.95
2019-05-22T17:48:53.009Z,101105.07
2019-05-22T17:53:55.264Z,101108.06
2019-05-22T17:58:57.683Z,101107.08
2019-05-22T18:04:01.424Z,101108.39
2019-05-22T18:09:06.976Z,101115.08
2019-05-22T18:14:10.126Z,101114.45
2019-05-22T18:19:12.531Z,101116.70
2019-05-22T18:24:15.574Z,101126.25
2019-05-22T18:29:18.679Z,101132.66
2019-05-22T18:34:21.220Z,101136.11
2019-05-22T18:39:25.041Z,101134.31
2019-05-22T18:44:28.129Z,101142.41
2019-05-22T18:49:31.309Z,101147.88
2019-05-22T18:54:33.519Z,101146.91
2019-05-22T18:59:35.741Z,101153.42
2019-05-22T19:04:38.401Z,101157.92
2019-05-22T19:09:41.537Z,101163.16
2019-05-22T19:14:44.092Z,101174.94
2019-05-22T19:19:47.986Z,101186.83
2019-05-22T19:24:51.216Z,101189.84
2019-05-22T19:29:54.231Z,101186.39
2019-05-22T19:34:56.883Z,101188.70
2019-05-22T19:39:59.969Z,101193.94
2019-05-22T19:45:05.231Z,101205.48
2019-05-22T19:50:22.877Z,101208.11
2019-05-22T19:55:18.648Z,101217.03
2019-05-22T20:00:21.562Z,101223.81
2019-05-22T20:05:24.932Z,101226.06
2019-05-22T20:10:27.390Z,101233.91
2019-05-22T20:15:29.984Z,101239.16
2019-05-22T20:20:32.645Z,101241.16
2019-05-22T20:25:35.154Z,101242.94
2019-05-22T20:30:37.649Z,101238.73
2019-05-22T20:35:40.955Z,101244.48
2019-05-22T20:40:44.258Z,101246.58
2019-05-22T20:45:47.569Z,101250.61
2019-05-22T20:50:50.399Z,101252.48
2019-05-22T20:55:54.126Z,101261.87
2019-05-22T21:00:57.755Z,101267.33
2019-05-22T21:06:02.530Z,101262.19
2019-05-22T21:11:07.953Z,101264.34
2019-05-22T21:16:12.301Z,101270.98
2019-05-22T21:21:14.951Z,101268.86
2019-05-22T21:26:18.289Z,101277.18
2019-05-22T21:31:21.127Z,101270.64
2019-05-22T21:36:24.015Z,101271.89
2019-05-22T21:41:26.720Z,101270.69
2019-05-22T21:46:29.980Z,101263.43
2019-05-22T21:51:33.946Z,101259.84
2019-05-22T21:56:37.460Z,101261.28
2019-05-22T22:01:54.922Z,101260.16
2019-05-22T22:06:59.257Z,101265.72
2019-05-22T22:12:03.979Z,101270.23
2019-05-22T22:17:09.509Z,101274.16
2019-05-22T22:22:19.467Z,101278.18
2019-05-22T22:27:22.130Z,101275.69
2019-05-22T22:32:26.698Z,101280.08
2019-05-22T22:37:30.555Z,101283.67
2019-05-22T22:42:36.838Z,101286.04
2019-05-22T22:47:42.481Z,101290.89
2019-05-22T22:52:45.673Z,101288.41
2019-05-22T22:57:51.160Z,101293.42
2019-05-22T23:02:56.061Z,101292.83
2019-05-22T23:07:59.065Z,101297.72
2019-05-22T23:13:04.585Z,101297.72
2019-05-22T23:18:08.080Z,101299.12
2019-05-22T23:23:09.311Z,101303.13
2019-05-22T23:28:12.321Z,101312.13
2019-05-22T23:33:15.106Z,101311.41
2019-05-22T23:38:17.722Z,101312.44
2019-05-22T23:43:20.920Z,101307.52
2019-05-22T23:48:26.995Z,101315.66
2019-05-22T23:53:32.195Z,101319.89
2019-05-22T23:58:49.916Z,101313.75
